Accueil
METAR-TAF:

METAR-TAF

Aéroports :

Aéroport de Parme

Parme, Italie

latitude: 44-49-17N, longitude: 010-17-41E, altitude: 50 m

Observation

Le bulletin a été fait il y a 1 heure et 41 minutes, à 21:50 UTC
Vent 2 kt de direction variable
Température 5°C
Humidité 100%
Pression 1023 hPa
Visibilité: 1300 m
Ciel couvert à une hauteur de 1000 ft
brume

METAR: LIMP 252150Z VRB02KT 1300 R20/P1500N BR OVC010 05/05 Q1023

Heure: 00:31 (23:31 UTC)

Prévision

Le bulletin a été fait il y a 6 heures et 31 minutes, à 17:00 UTC
Prévision valable du 25 à 18 UTC au 26 à 18 UTC
Vent 5 kt de ouest
Visibilité: 2000 m
Nuages fragmentés à une hauteur de 2000 ft
Nuages fragmentés à une hauteur de 6000 ft
brume
Temporairement
du 25 à 18 UTC au 26 à 08 UTC
Visibilité: 0800 m
Ciel couvert à une hauteur de 800 ft
bruine, brouillard

TAF: LIMP 251700Z 2518/2618 27005KT 2000 BR BKN020 BKN060 TEMPO 2518/2608 0800 DZ FG OVC008

Observations et prévisions météorologiques de plus de 4000 aéroports (messages METAR et TAF).

Les stations disponibles sont représentées par des disques jaunes et rouges sur la carte.

Passer la souris dessus pour voir le nom de la station.

Cliquer dessus pour voir les observations et prévisions météorologiques.

Pour changer de carte: cliquez sur les boutons verts avec une croix noire pour zoomer, sur le bouton vert avec un tiret pour effectuer un zoom arrière, ou sur les flèches vertes pour les cartes adjacentes.


METAR-TAF: